Time;durP1;ratioP1;P1;durP2;ratioP2;P2;SDS_P1;SDS_P2;PMS_P1;PMS_P2;Temp;Humidity;BMP_temperature;BMP_pressure;BME280_temperature;BME280_humidity;BME280_pressure;Samples;Min_cycle;Max_cycle;Signal;HPM_P1;HPM_P2
2023/03/03 00:01:31;;;;;;;4.10;0.70;;;3.30;99.90;;;;;;6250302;22;20069;-78
2023/03/03 00:03:58;;;;;;;7.13;0.90;;;3.30;99.90;;;;;;6250248;22;20024;-78
2023/03/03 00:06:23;;;;;;;6.80;0.98;;;3.40;99.90;;;;;;6250229;22;20012;-78
2023/03/03 00:08:49;;;;;;;4.90;0.90;;;3.40;99.90;;;;;;6277213;22;20106;-78
2023/03/03 00:11:15;;;;;;;4.90;1.27;;;3.40;99.90;;;;;;6250296;22;20043;-78
2023/03/03 00:13:47;;;;;;;2.28;0.55;;;3.40;99.90;;;;;;6277768;22;20087;-78
2023/03/03 00:16:34;;;;;;;5.38;0.68;;;3.40;99.90;;;;;;6250306;22;20061;-78
2023/03/03 00:19:00;;;;;;;2.17;0.70;;;3.40;99.90;;;;;;6250198;22;20046;-78
2023/03/03 00:21:30;;;;;;;2.42;0.65;;;3.40;99.90;;;;;;6277314;22;20019;-78
2023/03/03 00:24:21;;;;;;;5.00;0.85;;;3.40;99.90;;;;;;6250188;22;20023;-78
2023/03/03 00:27:00;;;;;;;3.92;0.57;;;3.30;99.90;;;;;;6250020;22;20019;-78
2023/03/03 00:29:44;;;;;;;9.02;0.70;;;3.30;99.90;;;;;;6250142;22;20019;-78
2023/03/03 00:32:25;;;;;;;3.78;0.75;;;3.30;99.90;;;;;;6250133;22;20019;-78
2023/03/03 00:34:53;;;;;;;5.35;1.08;;;3.20;99.90;;;;;;6250007;22;20031;-78
2023/03/03 00:37:22;;;;;;;6.70;0.70;;;3.30;99.90;;;;;;6249956;22;20320;-78
2023/03/03 00:39:48;;;;;;;4.65;0.70;;;3.20;99.90;;;;;;6276615;22;20024;-78
2023/03/03 00:42:19;;;;;;;6.78;0.70;;;3.20;99.90;;;;;;6249893;22;20020;-78
2023/03/03 00:44:47;;;;;;;5.43;0.60;;;3.20;99.90;;;;;;6249860;22;20023;-78
2023/03/03 00:47:35;;;;;;;4.20;0.75;;;3.20;99.90;;;;;;6249981;22;20046;-78
2023/03/03 00:50:10;;;;;;;4.10;0.77;;;3.20;99.90;;;;;;6249861;22;20020;-78
2023/03/03 00:52:38;;;;;;;5.88;0.70;;;3.10;99.90;;;;;;6249900;22;20014;-78
2023/03/03 00:55:05;;;;;;;3.35;0.57;;;3.10;99.90;;;;;;6277338;22;20020;-78
2023/03/03 00:57:30;;;;;;;0.80;0.50;;;3.20;99.90;;;;;;6249909;22;20043;-78
2023/03/03 00:59:56;;;;;;;5.32;0.93;;;3.10;99.90;;;;;;6249963;22;20062;-78
2023/03/03 01:02:22;;;;;;;2.28;0.60;;;3.10;99.90;;;;;;6250369;22;20061;-78
2023/03/03 01:04:50;;;;;;;4.53;0.90;;;3.10;99.90;;;;;;6249825;22;20012;-78
2023/03/03 01:07:15;;;;;;;4.78;0.90;;;3.10;99.90;;;;;;6277197;22;20041;-78
2023/03/03 01:09:41;;;;;;;2.85;0.60;;;3.10;99.90;;;;;;6249522;22;20015;-78
2023/03/03 01:12:08;;;;;;;2.90;0.60;;;3.10;99.90;;;;;;6249697;22;20020;-78
2023/03/03 01:14:34;;;;;;;3.55;1.05;;;3.10;99.90;;;;;;6276705;22;20020;-78
2023/03/03 01:16:59;;;;;;;7.07;0.70;;;3.10;99.90;;;;;;6249625;22;20015;-78
2023/03/03 01:19:25;;;;;;;3.88;0.68;;;3.00;99.90;;;;;;6276855;22;20020;-78
2023/03/03 01:21:51;;;;;;;3.20;0.70;;;3.00;99.90;;;;;;6277232;22;20180;-79
2023/03/03 01:24:16;;;;;;;7.22;0.77;;;3.00;99.90;;;;;;6249744;22;20027;-78
2023/03/03 01:26:42;;;;;;;4.15;1.10;;;3.00;99.90;;;;;;6249685;22;20467;-78
2023/03/03 01:29:08;;;;;;;3.88;0.52;;;3.00;99.90;;;;;;6249673;22;20351;-79
2023/03/03 01:31:33;;;;;;;1.63;0.50;;;3.00;99.90;;;;;;6249622;22;20343;-78
2023/03/03 01:33:59;;;;;;;4.80;0.70;;;2.90;99.90;;;;;;6276826;22;20027;-78
2023/03/03 01:36:26;;;;;;;3.40;0.70;;;2.90;99.90;;;;;;6276537;22;20031;-78
2023/03/03 01:38:52;;;;;;;1.45;0.52;;;2.90;99.90;;;;;;6249438;22;20020;-78
2023/03/03 01:41:18;;;;;;;1.77;0.60;;;2.90;99.90;;;;;;6276755;22;20026;-78
2023/03/03 01:43:46;;;;;;;6.70;0.63;;;2.90;99.90;;;;;;6249451;22;20083;-78
2023/03/03 01:46:54;;;;;;;3.72;1.10;;;2.90;99.90;;;;;;6276964;22;20085;-78
2023/03/03 01:49:50;;;;;;;2.95;0.82;;;2.80;99.90;;;;;;6209929;22;20020;-78
2023/03/03 01:52:29;;;;;;;5.68;1.48;;;2.90;99.90;;;;;;6245619;22;20019;-79
2023/03/03 01:55:00;;;;;;;3.95;0.63;;;2.90;99.90;;;;;;6279437;22;20394;-79
2023/03/03 01:57:31;;;;;;;5.78;0.70;;;2.90;99.90;;;;;;6279069;22;20018;-79
2023/03/03 01:59:59;;;;;;;5.65;0.52;;;2.90;99.90;;;;;;6279017;22;20022;-79
2023/03/03 02:02:27;;;;;;;6.40;1.00;;;2.90;99.90;;;;;;6252284;22;20026;-79
2023/03/03 02:04:53;;;;;;;5.05;0.80;;;2.90;99.90;;;;;;6251532;22;20019;-79
2023/03/03 02:07:20;;;;;;;3.97;0.70;;;2.90;99.90;;;;;;6251490;22;20449;-79
2023/03/03 02:10:04;;;;;;;2.72;0.60;;;3.00;99.90;;;;;;6251394;22;20018;-79
2023/03/03 02:12:51;;;;;;;1.83;0.90;;;2.90;99.90;;;;;;6251531;22;20057;-79
2023/03/03 02:15:24;;;;;;;3.35;0.50;;;2.90;99.90;;;;;;6251536;22;20026;-79
2023/03/03 02:17:54;;;;;;;4.28;0.63;;;3.00;99.90;;;;;;6251337;22;20423;-79
2023/03/03 02:20:56;;;;;;;4.95;0.88;;;3.00;99.90;;;;;;6251324;22;20031;-79
2023/03/03 02:23:31;;;;;;;3.97;0.68;;;3.10;99.90;;;;;;6251481;22;20078;-79
2023/03/03 02:25:57;;;;;;;1.92;0.95;;;3.10;99.90;;;;;;6278168;22;20416;-79
2023/03/03 02:28:26;;;;;;;8.27;0.73;;;3.20;99.90;;;;;;6251212;22;20427;-79
2023/03/03 02:30:55;;;;;;;4.68;0.70;;;3.20;99.90;;;;;;6251084;22;20340;-79
2023/03/03 02:33:21;;;;;;;2.70;0.88;;;3.20;99.90;;;;;;6251267;22;20027;-79
2023/03/03 02:35:47;;;;;;;6.82;0.65;;;3.20;99.90;;;;;;6251340;22;20016;-79
2023/03/03 02:38:41;;;;;;;2.88;0.60;;;3.20;99.90;;;;;;6278124;22;20161;-80
2023/03/03 02:41:21;;;;;;;4.55;0.77;;;3.20;99.90;;;;;;6251208;22;20044;-79
2023/03/03 02:44:00;;;;;;;4.93;1.02;;;3.30;99.90;;;;;;6278618;22;20075;-79
2023/03/03 02:46:33;;;;;;;7.00;0.77;;;3.30;99.90;;;;;;6251192;22;20505;-79
2023/03/03 02:48:59;;;;;;;;;;;3.30;99.90;;;;;;6251656;22;20023;-79
2023/03/03 02:51:25;;;;;;;3.50;1.42;;;3.30;99.90;;;;;;6251044;22;19919;-79
2023/03/03 02:53:51;;;;;;;4.97;0.75;;;3.30;99.90;;;;;;6251139;22;20031;-79
2023/03/03 02:56:16;;;;;;;3.60;0.40;;;3.30;99.90;;;;;;6278156;22;20020;-79
2023/03/03 02:58:42;;;;;;;2.92;0.60;;;3.40;99.90;;;;;;6278486;22;20058;-79
2023/03/03 03:01:07;;;;;;;2.25;0.70;;;3.40;99.90;;;;;;6250904;22;20012;-79
2023/03/03 03:03:33;;;;;;;4.25;1.25;;;3.40;99.90;;;;;;6251420;22;20061;-79
2023/03/03 03:05:59;;;;;;;2.72;0.70;;;3.50;99.90;;;;;;6251002;22;20008;-79
2023/03/03 03:08:24;;;;;;;6.05;0.70;;;3.50;99.90;;;;;;6250860;22;20427;-79
2023/03/03 03:10:50;;;;;;;7.05;1.13;;;3.40;99.90;;;;;;6251080;22;20023;-79
2023/03/03 03:13:16;;;;;;;3.05;0.45;;;3.40;99.90;;;;;;6278549;22;20008;-79
2023/03/03 03:15:45;;;;;;;5.22;1.00;;;3.40;99.90;;;;;;6250997;22;20406;-79
2023/03/03 03:18:11;;;;;;;6.35;1.13;;;3.40;99.90;;;;;;6251879;22;20023;-79
2023/03/03 03:20:38;;;;;;;3.47;0.80;;;3.40;99.90;;;;;;6278365;22;20015;-79
2023/03/03 03:23:05;;;;;;;8.27;0.85;;;3.40;99.90;;;;;;6250881;22;20016;-79
2023/03/03 03:25:31;;;;;;;2.90;0.70;;;3.40;99.90;;;;;;6250956;22;20352;-79
2023/03/03 03:27:56;;;;;;;10.02;0.95;;;3.50;99.90;;;;;;6250752;22;20099;-79
2023/03/03 03:30:22;;;;;;;10.52;1.33;;;3.40;99.90;;;;;;6250910;22;20039;-79
2023/03/03 03:32:48;;;;;;;1.88;0.45;;;3.40;99.90;;;;;;6250890;22;20030;-79
2023/03/03 03:35:16;;;;;;;4.70;0.50;;;3.40;99.90;;;;;;6250518;22;20501;-79
2023/03/03 03:37:42;;;;;;;2.20;0.30;;;3.40;99.90;;;;;;6250772;22;20060;-79
2023/03/03 03:40:08;;;;;;;5.95;0.50;;;3.40;99.90;;;;;;6250405;22;20071;-78
2023/03/03 03:42:34;;;;;;;1.80;0.30;;;3.40;99.90;;;;;;6278180;22;20030;-79
2023/03/03 03:45:00;;;;;;;6.18;0.68;;;3.40;99.90;;;;;;6250675;22;20012;-79
2023/03/03 03:47:25;;;;;;;5.82;0.55;;;3.40;99.90;;;;;;6251204;22;20016;-78
2023/03/03 03:49:51;;;;;;;1.50;0.50;;;3.40;99.90;;;;;;6250475;22;20443;-79
2023/03/03 03:52:16;;;;;;;7.35;1.27;;;3.40;99.90;;;;;;6250492;22;20011;-79
2023/03/03 03:54:42;;;;;;;6.43;0.77;;;3.40;99.90;;;;;;6250525;22;20012;-79
2023/03/03 03:57:08;;;;;;;5.68;0.70;;;3.40;99.90;;;;;;6250508;22;20112;-79
2023/03/03 03:59:33;;;;;;;3.67;1.23;;;3.50;99.90;;;;;;6250667;22;20023;-79
2023/03/03 04:01:59;;;;;;;2.13;0.45;;;3.40;99.90;;;;;;6250553;22;20023;-79
2023/03/03 04:04:25;;;;;;;4.95;0.60;;;3.40;99.90;;;;;;6277995;22;20098;-79
2023/03/03 04:06:50;;;;;;;4.53;0.60;;;3.50;99.90;;;;;;6250562;22;20015;-79
2023/03/03 04:09:16;;;;;;;4.95;0.70;;;3.40;99.90;;;;;;6250523;22;20398;-79
2023/03/03 04:11:41;;;;;;;4.57;0.38;;;3.40;99.90;;;;;;6277674;22;20023;-79
2023/03/03 04:14:07;;;;;;;1.58;0.50;;;3.40;99.90;;;;;;6277487;22;20578;-79
2023/03/03 04:16:33;;;;;;;9.63;0.70;;;3.40;99.90;;;;;;6250518;22;20024;-79
2023/03/03 04:18:58;;;;;;;2.58;0.65;;;3.40;99.90;;;;;;6250409;22;20494;-79
2023/03/03 04:21:24;;;;;;;14.52;1.60;;;3.40;99.90;;;;;;6277500;22;20024;-79
2023/03/03 04:23:52;;;;;;;2.08;0.47;;;3.40;99.90;;;;;;6250284;22;20428;-79
2023/03/03 04:26:17;;;;;;;3.58;0.55;;;3.40;99.90;;;;;;6250346;22;20023;-79
2023/03/03 04:28:44;;;;;;;6.80;0.63;;;3.50;99.90;;;;;;6250197;22;20444;-79
2023/03/03 04:31:10;;;;;;;2.63;0.57;;;3.40;99.90;;;;;;6277769;22;20012;-79
2023/03/03 04:33:36;;;;;;;3.28;0.57;;;3.50;99.90;;;;;;6250275;22;20016;-79
2023/03/03 04:36:01;;;;;;;4.63;0.55;;;3.50;99.90;;;;;;6250277;22;20454;-79
2023/03/03 04:38:27;;;;;;;5.93;0.50;;;3.50;99.90;;;;;;6249832;22;20503;-79
2023/03/03 04:40:52;;;;;;;5.72;0.65;;;3.50;99.90;;;;;;6250300;22;20016;-79
2023/03/03 04:43:18;;;;;;;3.60;0.50;;;3.50;99.90;;;;;;6250183;22;20362;-79
2023/03/03 04:45:44;;;;;;;5.65;0.60;;;3.50;99.90;;;;;;6250209;22;20015;-79
2023/03/03 04:48:09;;;;;;;3.75;0.50;;;3.50;99.90;;;;;;6277052;22;20027;-79
2023/03/03 04:50:35;;;;;;;6.97;1.55;;;3.50;99.90;;;;;;6250115;22;20020;-79
2023/03/03 04:53:01;;;;;;;4.10;0.45;;;3.50;99.90;;;;;;6250163;22;20023;-79
2023/03/03 04:55:27;;;;;;;4.50;0.75;;;3.40;99.90;;;;;;6277415;22;20020;-79
2023/03/03 04:57:52;;;;;;;5.82;0.60;;;3.40;99.90;;;;;;6277265;22;20015;-79
2023/03/03 05:00:18;;;;;;;6.25;0.73;;;3.40;99.90;;;;;;6250117;22;20022;-79
2023/03/03 05:02:46;;;;;;;2.95;0.60;;;3.40;99.90;;;;;;6277183;22;20024;-79
2023/03/03 05:05:12;;;;;;;3.70;0.68;;;3.40;99.90;;;;;;6250045;22;20020;-79
2023/03/03 05:07:38;;;;;;;4.18;0.90;;;3.40;99.90;;;;;;6249937;22;20387;-79
2023/03/03 05:10:05;;;;;;;4.22;0.70;;;3.40;99.90;;;;;;6249968;22;20015;-79
2023/03/03 05:12:31;;;;;;;7.85;0.98;;;3.40;99.90;;;;;;6250053;22;20016;-79
2023/03/03 05:14:56;;;;;;;4.10;0.77;;;3.30;99.90;;;;;;6277413;22;20015;-79
2023/03/03 05:17:22;;;;;;;4.25;1.17;;;3.30;99.90;;;;;;6250001;22;20439;-79
2023/03/03 05:19:48;;;;;;;7.43;1.50;;;3.20;99.90;;;;;;6276964;22;20015;-79
2023/03/03 05:22:13;;;;;;;9.82;1.30;;;3.30;99.90;;;;;;6276969;22;20077;-79
2023/03/03 05:24:41;;;;;;;7.00;1.50;;;3.30;99.90;;;;;;6249845;22;20019;-79
2023/03/03 05:27:07;;;;;;;3.90;0.73;;;3.30;99.90;;;;;;6249742;22;20351;-79
2023/03/03 05:29:33;;;;;;;4.97;0.88;;;3.30;99.90;;;;;;6249716;22;20051;-79
2023/03/03 05:32:00;;;;;;;5.20;0.90;;;3.30;99.90;;;;;;6277227;22;20019;-79
2023/03/03 05:34:26;;;;;;;7.10;0.90;;;3.30;99.90;;;;;;6277159;22;20385;-79
2023/03/03 05:36:51;;;;;;;6.53;1.27;;;3.30;99.90;;;;;;6249560;22;20012;-79
2023/03/03 05:39:17;;;;;;;3.70;1.48;;;3.30;99.90;;;;;;6249653;22;20090;-79
2023/03/03 05:41:43;;;;;;;8.13;1.38;;;3.40;99.90;;;;;;6249842;22;20094;-79
2023/03/03 05:44:09;;;;;;;11.63;1.45;;;3.40;99.90;;;;;;6249842;22;20019;-79
2023/03/03 05:46:34;;;;;;;6.32;1.20;;;3.50;99.90;;;;;;6249822;22;20381;-79
2023/03/03 05:49:00;;;;;;;6.95;1.50;;;3.40;99.90;;;;;;6277223;22;20020;-79
2023/03/03 05:51:26;;;;;;;7.65;1.15;;;3.40;99.90;;;;;;6277113;22;20011;-79
2023/03/03 05:53:52;;;;;;;4.80;1.30;;;3.40;99.90;;;;;;6276752;22;20027;-79
2023/03/03 05:56:17;;;;;;;3.03;1.13;;;3.50;99.90;;;;;;6249733;22;20019;-79
2023/03/03 05:58:43;;;;;;;6.70;1.40;;;3.40;99.90;;;;;;6249685;22;20018;-79
2023/03/03 06:01:09;;;;;;;6.72;1.40;;;3.40;99.90;;;;;;6249448;22;20012;-79
2023/03/03 06:03:34;;;;;;;4.43;1.38;;;3.40;99.90;;;;;;6249532;22;20077;-79
2023/03/03 06:06:00;;;;;;;4.55;1.85;;;3.40;99.90;;;;;;6249521;22;20019;-79
2023/03/03 06:08:26;;;;;;;6.22;1.27;;;3.40;99.90;;;;;;6249360;22;20343;-79
2023/03/03 06:10:51;;;;;;;6.45;1.55;;;3.40;99.90;;;;;;6249238;22;20023;-79
2023/03/03 06:13:17;;;;;;;3.60;1.77;;;3.40;99.90;;;;;;6276099;22;20024;-79
2023/03/03 06:15:43;;;;;;;2.53;1.60;;;3.40;99.90;;;;;;6276754;22;20015;-79
2023/03/03 06:18:08;;;;;;;4.53;2.33;;;3.40;99.90;;;;;;6276471;22;20019;-79
2023/03/03 06:20:35;;;;;;;4.85;2.05;;;3.40;99.90;;;;;;6276731;22;20022;-79
2023/03/03 06:23:01;;;;;;;7.82;1.90;;;3.40;99.90;;;;;;6276708;22;20020;-79
2023/03/03 06:25:27;;;;;;;3.58;1.45;;;3.40;99.90;;;;;;6276189;22;20095;-79
2023/03/03 06:27:53;;;;;;;5.97;1.80;;;3.40;99.90;;;;;;6276363;22;20097;-79
2023/03/03 06:30:19;;;;;;;7.50;2.67;;;3.40;99.90;;;;;;6249298;22;20050;-79
2023/03/03 06:32:45;;;;;;;7.82;1.50;;;3.40;99.90;;;;;;6276326;22;20443;-79
2023/03/03 06:35:11;;;;;;;4.25;1.20;;;3.40;99.90;;;;;;6276693;22;20057;-79
2023/03/03 06:37:37;;;;;;;5.85;1.55;;;3.30;99.90;;;;;;6250371;22;20016;-79
2023/03/03 06:40:04;;;;;;;6.70;1.73;;;3.30;99.90;;;;;;6278050;22;20027;-79
2023/03/03 06:42:30;;;;;;;5.55;1.30;;;3.20;99.90;;;;;;6278139;22;20336;-80
2023/03/03 06:44:56;;;;;;;4.97;1.45;;;3.20;99.90;;;;;;6250967;22;20428;-80
2023/03/03 06:47:21;;;;;;;4.95;1.15;;;3.10;99.90;;;;;;6251197;22;20012;-79
2023/03/03 06:49:47;;;;;;;4.93;1.10;;;3.10;99.90;;;;;;6250805;22;20023;-80
2023/03/03 06:52:17;;;;;;;5.50;1.55;;;3.10;99.90;;;;;;6250893;22;20012;-79
2023/03/03 06:54:43;;;;;;;7.63;1.35;;;3.10;99.90;;;;;;6251069;22;20107;-80
2023/03/03 06:57:26;;;;;;;6.82;1.30;;;3.10;99.90;;;;;;6251018;22;20403;-80
2023/03/03 06:59:54;;;;;;;4.13;1.30;;;3.00;99.90;;;;;;6251084;22;20015;-80
2023/03/03 07:02:21;;;;;;;3.05;1.20;;;3.00;99.90;;;;;;6250902;22;20016;-80
2023/03/03 07:04:47;;;;;;;4.10;2.05;;;3.00;99.90;;;;;;6251242;22;20428;-80
2023/03/03 07:07:17;;;;;;;4.78;1.50;;;3.00;99.90;;;;;;6278083;22;20042;-80
2023/03/03 07:09:45;;;;;;;4.40;1.50;;;3.00;99.90;;;;;;6278355;22;20023;-80
2023/03/03 07:12:15;;;;;;;4.07;1.40;;;3.00;99.90;;;;;;6250992;22;20313;-80
2023/03/03 07:14:44;;;;;;;3.97;1.40;;;3.10;99.90;;;;;;6250867;22;20031;-80
2023/03/03 07:17:20;;;;;;;7.03;1.73;;;3.10;99.90;;;;;;6250678;22;20330;-79
2023/03/03 07:19:46;;;;;;;5.57;1.25;;;3.20;99.90;;;;;;6250807;22;20058;-79
2023/03/03 07:22:22;;;;;;;4.38;1.30;;;3.30;99.90;;;;;;6250806;22;20016;-80
2023/03/03 07:24:51;;;;;;;4.85;2.03;;;3.50;99.90;;;;;;6250680;22;20022;-80
2023/03/03 07:27:25;;;;;;;3.55;1.00;;;3.60;99.90;;;;;;6278184;22;20018;-80
2023/03/03 07:29:53;;;;;;;4.32;1.10;;;3.70;99.90;;;;;;6277588;22;20066;-87
2023/03/03 07:32:38;;;;;;;2.95;1.10;;;3.70;99.90;;;;;;6250818;22;20030;-80
2023/03/03 07:35:17;;;;;;;3.15;0.90;;;3.90;99.90;;;;;;6249455;22;20012;-79
2023/03/03 07:37:43;;;;;;;3.13;0.90;;;4.00;99.90;;;;;;6250495;22;20515;-79
2023/03/03 07:40:36;;;;;;;3.53;0.68;;;4.10;99.90;;;;;;6250382;22;20455;-80
2023/03/03 07:43:33;;;;;;;1.73;1.27;;;4.20;99.90;;;;;;6277834;22;20066;-80
2023/03/03 07:46:24;;;;;;;4.38;0.70;;;4.30;99.90;;;;;;6250559;22;20035;-80
2023/03/03 07:48:51;;;;;;;3.67;0.90;;;4.40;99.90;;;;;;6229035;22;20380;-80
2023/03/03 07:51:35;;;;;;;5.38;0.82;;;4.40;99.90;;;;;;6277632;22;20015;-80
2023/03/03 07:54:24;;;;;;;1.88;0.85;;;4.50;99.90;;;;;;6277479;22;20394;-80
2023/03/03 07:56:49;;;;;;;6.03;0.80;;;4.50;99.90;;;;;;6277923;22;20026;-80
2023/03/03 07:59:21;;;;;;;2.65;0.68;;;4.60;99.90;;;;;;6277359;22;20095;-83
2023/03/03 08:01:51;;;;;;;4.55;0.85;;;4.70;99.90;;;;;;6277495;22;20083;-79
2023/03/03 08:04:43;;;;;;;6.97;0.88;;;4.70;99.90;;;;;;6250269;22;20058;-80
2023/03/03 08:07:20;;;;;;;2.28;0.50;;;4.80;99.90;;;;;;6269945;22;20016;-80
2023/03/03 08:09:55;;;;;;;1.73;0.50;;;4.90;99.90;;;;;;6250160;22;20027;-81
2023/03/03 08:12:32;;;;;;;2.72;0.40;;;4.90;99.90;;;;;;6250141;22;20347;-80
2023/03/03 08:15:22;;;;;;;1.33;0.65;;;4.90;99.90;;;;;;6250243;22;20023;-81
2023/03/03 08:17:49;;;;;;;8.60;1.48;;;5.00;99.90;;;;;;6234646;22;20018;-82
2023/03/03 08:20:33;;;;;;;3.75;0.80;;;5.00;99.90;;;;;;6249817;22;20022;-85
2023/03/03 08:22:59;;;;;;;3.08;0.50;;;5.10;99.90;;;;;;6250090;22;20019;-82
2023/03/03 08:25:24;;;;;;;2.35;0.60;;;5.20;99.90;;;;;;6277201;22;20019;-82
2023/03/03 08:27:50;;;;;;;1.48;0.50;;;5.20;99.90;;;;;;6249797;22;20382;-80
2023/03/03 08:30:16;;;;;;;2.67;0.85;;;5.20;99.90;;;;;;6249972;22;20047;-80
2023/03/03 08:32:42;;;;;;;3.67;0.63;;;5.20;99.90;;;;;;6249867;22;20026;-80
2023/03/03 08:35:08;;;;;;;4.57;0.73;;;5.30;99.90;;;;;;6249949;22;20019;-80
2023/03/03 08:37:34;;;;;;;2.00;0.60;;;5.30;99.90;;;;;;6249915;22;20053;-85
2023/03/03 08:39:59;;;;;;;1.52;0.70;;;5.40;99.90;;;;;;6249578;22;20066;-84
2023/03/03 08:42:25;;;;;;;4.60;1.30;;;5.40;99.90;;;;;;6249876;22;20034;-84
2023/03/03 08:44:51;;;;;;;2.50;0.80;;;5.40;99.90;;;;;;6277237;22;20378;-83
2023/03/03 08:47:16;;;;;;;2.42;0.57;;;5.50;99.90;;;;;;6276763;22;20051;-83
2023/03/03 08:49:42;;;;;;;4.55;0.70;;;5.60;99.90;;;;;;6249469;22;20047;-82
2023/03/03 08:52:26;;;;;;;3.25;0.57;;;5.70;99.90;;;;;;6276773;22;20057;-83
2023/03/03 08:54:52;;;;;;;4.30;0.68;;;5.80;99.90;;;;;;6276908;22;20440;-83
2023/03/03 08:57:17;;;;;;;2.35;0.50;;;5.80;99.90;;;;;;6277242;22;20038;-83
2023/03/03 08:59:44;;;;;;;5.00;0.80;;;5.80;99.90;;;;;;6276944;22;20016;-82
2023/03/03 09:02:09;;;;;;;3.83;0.85;;;5.90;99.90;;;;;;6249831;22;20019;-83
2023/03/03 09:04:35;;;;;;;3.53;0.50;;;5.90;99.90;;;;;;6249825;22;20242;-82
2023/03/03 09:07:01;;;;;;;3.65;0.80;;;6.00;99.90;;;;;;6249844;22;20043;-85
2023/03/03 09:09:27;;;;;;;3.28;0.65;;;6.00;99.90;;;;;;6249823;22;20016;-84
2023/03/03 09:11:57;;;;;;;1.65;0.63;;;6.10;99.90;;;;;;6249827;22;20343;-85
2023/03/03 09:14:27;;;;;;;5.05;0.77;;;6.20;99.90;;;;;;6249716;22;20490;-85
2023/03/03 09:16:56;;;;;;;4.95;0.85;;;6.10;99.90;;;;;;6249829;22;20016;-85
2023/03/03 09:19:31;;;;;;;4.28;1.13;;;6.10;99.90;;;;;;6249861;22;20078;-86
2023/03/03 09:22:19;;;;;;;6.13;1.33;;;6.10;99.90;;;;;;6249986;22;20015;-82
2023/03/03 09:24:47;;;;;;;3.17;0.73;;;6.20;99.90;;;;;;6226546;22;20016;-82
2023/03/03 09:27:18;;;;;;;4.10;0.80;;;6.20;99.90;;;;;;6250015;22;20015;-83
2023/03/03 09:29:44;;;;;;;2.58;0.77;;;6.20;99.90;;;;;;6276713;22;20335;-83
2023/03/03 09:32:34;;;;;;;4.70;0.93;;;6.30;99.90;;;;;;6276815;22;20049;-83
2023/03/03 09:35:21;;;;;;;5.47;0.82;;;6.30;99.90;;;;;;6249520;22;20481;-83
2023/03/03 09:37:49;;;;;;;3.25;0.60;;;6.30;99.90;;;;;;6249453;22;20024;-83
2023/03/03 09:40:39;;;;;;;2.97;0.80;;;6.20;99.90;;;;;;6249457;22;20482;-80
2023/03/03 09:43:14;;;;;;;3.17;0.80;;;6.30;99.90;;;;;;6249504;22;20019;-87
2023/03/03 09:46:06;;;;;;;4.28;1.25;;;6.30;99.90;;;;;;6249532;22;20482;-81
2023/03/03 09:48:39;;;;;;;5.75;0.98;;;6.30;99.90;;;;;;6249516;22;20015;-81
2023/03/03 09:51:11;;;;;;;;;;;6.30;99.90;;;;;;6250125;22;20016;-81
2023/03/03 09:54:05;;;;;;;4.50;0.60;;;6.40;99.90;;;;;;6249547;22;19911;-81
2023/03/03 09:56:43;;;;;;;3.28;0.65;;;6.40;99.90;;;;;;6276964;22;20079;-81
2023/03/03 09:59:30;;;;;;;4.57;0.65;;;6.50;99.90;;;;;;6250041;22;20023;-81
2023/03/03 10:02:28;;;;;;;3.25;1.02;;;6.50;99.90;;;;;;6277117;22;20020;-87
2023/03/03 10:05:14;;;;;;;2.40;0.60;;;6.60;99.90;;;;;;6249451;22;20065;-78
2023/03/03 10:07:47;;;;;;;2.30;0.47;;;6.70;99.90;;;;;;6249879;22;20020;-81
2023/03/03 10:10:32;;;;;;;4.90;0.80;;;6.70;99.90;;;;;;6276654;22;20068;-82
2023/03/03 10:13:03;;;;;;;4.25;0.70;;;6.80;99.90;;;;;;6251214;22;20011;-79
2023/03/03 10:15:32;;;;;;;4.63;0.60;;;6.90;99.90;;;;;;6278875;22;20050;-84
2023/03/03 10:18:28;;;;;;;3.08;0.73;;;6.90;99.90;;;;;;6251384;22;20020;-84
2023/03/03 10:21:07;;;;;;;8.90;1.17;;;6.90;99.90;;;;;;6278727;22;20015;-79
2023/03/03 10:24:00;;;;;;;5.50;0.60;;;7.00;99.90;;;;;;6278507;22;20422;-83
2023/03/03 10:26:44;;;;;;;10.82;1.58;;;7.00;99.90;;;;;;6278419;22;20024;-80
2023/03/03 10:29:18;;;;;;;4.85;1.02;;;7.20;99.90;;;;;;6251069;22;20016;-80
2023/03/03 10:32:14;;;;;;;6.03;1.48;;;7.30;99.90;;;;;;6251432;22;20145;-81
2023/03/03 10:34:53;;;;;;;6.70;1.15;;;7.40;99.90;;;;;;6251331;22;20055;-80
2023/03/03 10:37:40;;;;;;;12.15;1.52;;;7.50;99.90;;;;;;6251764;22;20011;-80
2023/03/03 10:40:27;;;;;;;3.10;0.70;;;7.60;99.90;;;;;;6251017;22;20022;-80
2023/03/03 10:43:22;;;;;;;3.25;0.80;;;7.70;99.90;;;;;;6251276;22;20132;-80
2023/03/03 10:46:09;;;;;;;2.42;0.50;;;7.80;99.90;;;;;;6251067;22;20011;-82
2023/03/03 10:49:03;;;;;;;5.55;0.73;;;7.70;99.90;;;;;;6251107;22;20069;-81
2023/03/03 10:51:33;;;;;;;2.28;0.35;;;7.70;99.90;;;;;;6251113;22;20505;-81
2023/03/03 10:54:17;;;;;;;3.85;0.68;;;7.80;99.90;;;;;;6251254;22;20439;-81
2023/03/03 10:56:53;;;;;;;8.18;0.70;;;7.80;99.90;;;;;;6251056;22;20466;-80
2023/03/03 10:59:30;;;;;;;5.13;0.70;;;7.80;99.90;;;;;;6251200;22;20026;-81
2023/03/03 11:02:05;;;;;;;6.63;0.88;;;7.80;99.90;;;;;;6251075;22;20012;-84
2023/03/03 11:04:52;;;;;;;6.13;0.77;;;7.90;99.90;;;;;;6250519;22;20016;-83
2023/03/03 11:07:48;;;;;;;6.40;1.00;;;7.90;99.90;;;;;;6250493;22;20026;-83
2023/03/03 11:10:29;;;;;;;8.20;1.20;;;7.90;99.90;;;;;;6251023;22;20024;-83
2023/03/03 11:13:14;;;;;;;9.60;0.93;;;8.00;99.90;;;;;;6250917;22;20016;-82
2023/03/03 11:16:04;;;;;;;6.88;1.17;;;7.90;99.90;;;;;;6250908;22;20027;-83
2023/03/03 11:18:32;;;;;;;8.30;1.33;;;8.00;99.90;;;;;;6250849;22;20050;-85
2023/03/03 11:21:14;;;;;;;9.25;1.30;;;8.00;99.90;;;;;;6250901;22;20011;-79
2023/03/03 11:24:01;;;;;;;7.55;1.08;;;8.10;99.90;;;;;;6250795;22;20020;-82
2023/03/03 11:26:42;;;;;;;14.18;1.70;;;8.00;99.90;;;;;;6250873;22;20016;-83
2023/03/03 11:29:45;;;;;;;6.65;1.35;;;7.90;99.90;;;;;;6251260;22;20022;-82
2023/03/03 11:32:16;;;;;;;8.63;1.45;;;8.00;99.90;;;;;;6250728;22;20016;-84
2023/03/03 11:35:07;;;;;;;10.35;1.85;;;8.00;99.90;;;;;;6250441;22;20377;-80
2023/03/03 11:37:42;;;;;;;11.13;2.20;;;7.90;99.90;;;;;;6249476;22;20016;-81
2023/03/03 11:40:31;;;;;;;7.53;1.60;;;8.00;99.90;;;;;;6250121;22;20047;-81
2023/03/03 11:43:16;;;;;;;12.63;1.83;;;8.10;99.90;;;;;;6278176;22;20082;-81
2023/03/03 11:45:48;;;;;;;6.63;1.55;;;8.10;99.90;;;;;;6277182;22;20390;-80
2023/03/03 11:48:22;;;;;;;5.35;1.33;;;8.20;99.90;;;;;;6250418;22;20026;-79
2023/03/03 11:51:30;;;;;;;13.10;2.05;;;8.10;99.90;;;;;;6277943;22;20007;-80
2023/03/03 11:54:09;;;;;;;11.57;3.30;;;8.10;99.90;;;;;;6236377;22;20022;-81
2023/03/03 11:56:44;;;;;;;12.60;1.42;;;8.20;99.90;;;;;;6250545;22;20103;-81
2023/03/03 11:59:34;;;;;;;9.75;2.42;;;8.10;99.90;;;;;;6277830;22;20016;-79
2023/03/03 12:02:12;;;;;;;10.20;1.70;;;8.20;99.90;;;;;;6250609;22;20058;-79
2023/03/03 12:04:45;;;;;;;17.80;3.22;;;8.20;99.90;;;;;;6250499;22;20451;-79
2023/03/03 12:07:36;;;;;;;14.48;2.50;;;8.20;99.90;;;;;;6250376;22;20091;-79
2023/03/03 12:10:13;;;;;;;15.20;2.92;;;8.20;99.90;;;;;;6250309;22;20440;-79
2023/03/03 12:12:44;;;;;;;18.17;2.97;;;8.10;99.90;;;;;;6250426;22;20016;-81
2023/03/03 12:15:34;;;;;;;17.73;2.58;;;8.10;99.90;;;;;;6250415;22;20020;-81
2023/03/03 12:18:19;;;;;;;16.27;2.60;;;8.20;99.90;;;;;;6250350;22;20018;-79
2023/03/03 12:21:14;;;;;;;16.38;3.33;;;8.10;99.90;;;;;;6250352;22;20026;-79
2023/03/03 12:24:05;;;;;;;16.02;2.90;;;8.10;99.90;;;;;;6250005;22;20047;-81
2023/03/03 12:26:58;;;;;;;23.52;4.15;;;8.10;99.90;;;;;;6277516;22;20435;-79
2023/03/03 12:29:27;;;;;;;;;;;8.00;99.90;;;;;;6250418;22;20027;-79
2023/03/03 12:32:14;;;;;;;16.52;2.30;;;8.00;99.90;;;;;;6250221;22;19915;-79
2023/03/03 12:34:49;;;;;;;12.20;1.90;;;8.10;99.90;;;;;;6249852;22;20347;-80
2023/03/03 12:37:46;;;;;;;19.17;2.50;;;8.00;99.90;;;;;;6250121;22;20016;-79
2023/03/03 12:40:19;;;;;;;15.20;2.50;;;8.00;99.90;;;;;;6249743;22;20011;-79
2023/03/03 12:42:59;;;;;;;17.40;2.92;;;7.90;99.90;;;;;;6249987;22;20020;-79
2023/03/03 12:46:05;;;;;;;20.33;3.08;;;7.90;99.90;;;;;;6249825;22;20007;-79
2023/03/03 12:48:42;;;;;;;15.23;3.22;;;7.90;99.90;;;;;;6249894;22;20093;-78
2023/03/03 12:51:41;;;;;;;21.88;3.72;;;7.90;99.90;;;;;;6249895;22;20043;-79
2023/03/03 12:54:13;;;;;;;13.05;3.13;;;7.90;99.90;;;;;;6249987;22;20020;-78
2023/03/03 12:56:47;;;;;;;13.45;2.97;;;7.90;99.90;;;;;;6249886;22;20015;-80
2023/03/03 12:59:33;;;;;;;21.13;2.75;;;7.80;99.90;;;;;;6249866;22;20097;-80
2023/03/03 13:02:36;;;;;;;13.13;1.83;;;7.90;99.90;;;;;;6249953;22;20026;-80
2023/03/03 13:05:23;;;;;;;16.10;3.00;;;7.90;99.90;;;;;;6249780;22;20020;-79
2023/03/03 13:08:10;;;;;;;18.98;3.30;;;7.90;99.90;;;;;;6249752;22;20452;-77
2023/03/03 13:10:51;;;;;;;17.92;2.28;;;7.80;99.90;;;;;;6277160;22;20016;-79
2023/03/03 13:13:47;;;;;;;21.85;3.55;;;7.80;99.90;;;;;;6249819;22;20015;-82
2023/03/03 13:16:20;;;;;;;16.98;2.58;;;7.80;99.90;;;;;;6249771;22;20099;-80
2023/03/03 13:19:31;;;;;;;17.73;2.83;;;7.80;99.90;;;;;;6249733;22;20110;-81
2023/03/03 13:22:38;;;;;;;16.02;2.70;;;7.80;99.90;;;;;;6203826;22;20031;-79
2023/03/03 13:25:16;;;;;;;17.10;2.72;;;7.70;99.90;;;;;;6124067;23;20092;-79
2023/03/03 13:27:45;;;;;;;10.27;2.03;;;7.70;99.90;;;;;;6123976;23;20022;-80